sensor_id;sensor_type;location;lat;lon;timestamp;P1;durP1;ratioP1;P2;durP2;ratioP2
7957;SDS011;4024;52.172;5.378;2023-11-19T00:00:40;14.73;;;5.80;;
7957;SDS011;4024;52.172;5.378;2023-11-19T00:03:07;16.83;;;5.87;;
7957;SDS011;4024;52.172;5.378;2023-11-19T00:05:33;16.43;;;5.63;;
7957;SDS011;4024;52.172;5.378;2023-11-19T00:07:59;14.70;;;5.43;;
7957;SDS011;4024;52.172;5.378;2023-11-19T00:10:24;15.50;;;4.90;;
7957;SDS011;4024;52.172;5.378;2023-11-19T00:12:50;21.77;;;6.27;;
7957;SDS011;4024;52.172;5.378;2023-11-19T00:15:16;17.50;;;5.10;;
7957;SDS011;4024;52.172;5.378;2023-11-19T00:17:46;14.43;;;4.73;;
7957;SDS011;4024;52.172;5.378;2023-11-19T00:20:16;16.73;;;5.33;;
7957;SDS011;4024;52.172;5.378;2023-11-19T00:22:43;14.23;;;5.30;;
7957;SDS011;4024;52.172;5.378;2023-11-19T00:25:09;16.53;;;5.03;;
7957;SDS011;4024;52.172;5.378;2023-11-19T00:27:37;14.20;;;4.70;;
7957;SDS011;4024;52.172;5.378;2023-11-19T00:30:06;16.23;;;5.63;;
7957;SDS011;4024;52.172;5.378;2023-11-19T00:32:35;18.83;;;5.23;;
7957;SDS011;4024;52.172;5.378;2023-11-19T00:35:03;18.63;;;5.07;;
7957;SDS011;4024;52.172;5.378;2023-11-19T00:37:30;19.70;;;5.20;;
7957;SDS011;4024;52.172;5.378;2023-11-19T00:39:55;13.17;;;5.77;;
7957;SDS011;4024;52.172;5.378;2023-11-19T00:42:21;16.10;;;5.17;;
7957;SDS011;4024;52.172;5.378;2023-11-19T00:44:49;19.33;;;5.10;;
7957;SDS011;4024;52.172;5.378;2023-11-19T00:47:15;19.03;;;5.73;;
7957;SDS011;4024;52.172;5.378;2023-11-19T00:49:40;15.40;;;5.07;;
7957;SDS011;4024;52.172;5.378;2023-11-19T00:52:07;19.17;;;6.00;;
7957;SDS011;4024;52.172;5.378;2023-11-19T00:54:33;21.90;;;5.93;;
7957;SDS011;4024;52.172;5.378;2023-11-19T00:56:59;26.83;;;5.63;;
7957;SDS011;4024;52.172;5.378;2023-11-19T00:59:24;15.30;;;5.23;;
7957;SDS011;4024;52.172;5.378;2023-11-19T01:01:50;18.77;;;5.43;;
7957;SDS011;4024;52.172;5.378;2023-11-19T01:04:18;17.30;;;6.07;;
7957;SDS011;4024;52.172;5.378;2023-11-19T01:06:44;17.77;;;5.70;;
7957;SDS011;4024;52.172;5.378;2023-11-19T01:09:10;21.37;;;5.87;;
7957;SDS011;4024;52.172;5.378;2023-11-19T01:11:35;25.17;;;6.40;;
7957;SDS011;4024;52.172;5.378;2023-11-19T01:14:01;20.30;;;5.80;;
7957;SDS011;4024;52.172;5.378;2023-11-19T01:16:27;24.37;;;6.13;;
7957;SDS011;4024;52.172;5.378;2023-11-19T01:18:53;26.97;;;6.50;;
7957;SDS011;4024;52.172;5.378;2023-11-19T01:21:18;27.67;;;6.57;;
7957;SDS011;4024;52.172;5.378;2023-11-19T01:23:44;23.97;;;6.60;;
7957;SDS011;4024;52.172;5.378;2023-11-19T01:26:10;22.13;;;6.17;;
7957;SDS011;4024;52.172;5.378;2023-11-19T01:28:37;26.07;;;6.23;;
7957;SDS011;4024;52.172;5.378;2023-11-19T01:31:10;16.37;;;5.97;;
7957;SDS011;4024;52.172;5.378;2023-11-19T01:33:36;27.70;;;6.97;;
7957;SDS011;4024;52.172;5.378;2023-11-19T01:36:03;20.70;;;6.40;;
7957;SDS011;4024;52.172;5.378;2023-11-19T01:38:29;24.10;;;6.47;;
7957;SDS011;4024;52.172;5.378;2023-11-19T01:40:56;29.33;;;6.27;;
7957;SDS011;4024;52.172;5.378;2023-11-19T01:43:32;30.70;;;7.30;;
7957;SDS011;4024;52.172;5.378;2023-11-19T01:45:59;26.90;;;7.23;;
7957;SDS011;4024;52.172;5.378;2023-11-19T01:48:25;31.17;;;7.00;;
7957;SDS011;4024;52.172;5.378;2023-11-19T01:50:51;30.53;;;7.27;;
7957;SDS011;4024;52.172;5.378;2023-11-19T01:53:18;29.87;;;7.60;;
7957;SDS011;4024;52.172;5.378;2023-11-19T01:55:46;30.80;;;6.07;;
7957;SDS011;4024;52.172;5.378;2023-11-19T01:58:12;34.80;;;6.97;;
7957;SDS011;4024;52.172;5.378;2023-11-19T02:00:38;26.63;;;6.43;;
7957;SDS011;4024;52.172;5.378;2023-11-19T02:03:05;33.87;;;7.27;;
7957;SDS011;4024;52.172;5.378;2023-11-19T02:05:33;31.53;;;7.77;;
7957;SDS011;4024;52.172;5.378;2023-11-19T02:07:59;33.60;;;7.70;;
7957;SDS011;4024;52.172;5.378;2023-11-19T02:10:25;35.67;;;7.57;;
7957;SDS011;4024;52.172;5.378;2023-11-19T02:12:51;34.53;;;7.67;;
7957;SDS011;4024;52.172;5.378;2023-11-19T02:15:17;32.37;;;7.63;;
7957;SDS011;4024;52.172;5.378;2023-11-19T02:17:49;29.30;;;8.00;;
7957;SDS011;4024;52.172;5.378;2023-11-19T02:20:15;27.37;;;6.90;;
7957;SDS011;4024;52.172;5.378;2023-11-19T02:22:43;30.80;;;7.40;;
7957;SDS011;4024;52.172;5.378;2023-11-19T02:25:12;33.17;;;7.93;;
7957;SDS011;4024;52.172;5.378;2023-11-19T02:27:54;26.33;;;7.67;;
7957;SDS011;4024;52.172;5.378;2023-11-19T02:30:23;29.50;;;7.63;;
7957;SDS011;4024;52.172;5.378;2023-11-19T02:32:53;27.57;;;6.47;;
7957;SDS011;4024;52.172;5.378;2023-11-19T02:35:22;34.83;;;7.37;;
7957;SDS011;4024;52.172;5.378;2023-11-19T02:37:56;28.33;;;8.73;;
7957;SDS011;4024;52.172;5.378;2023-11-19T02:40:23;30.63;;;7.23;;
7957;SDS011;4024;52.172;5.378;2023-11-19T02:42:54;36.40;;;9.20;;
7957;SDS011;4024;52.172;5.378;2023-11-19T02:45:22;34.53;;;8.13;;
7957;SDS011;4024;52.172;5.378;2023-11-19T02:47:48;28.90;;;8.33;;
7957;SDS011;4024;52.172;5.378;2023-11-19T02:50:13;33.47;;;8.33;;
7957;SDS011;4024;52.172;5.378;2023-11-19T02:52:40;30.83;;;7.73;;
7957;SDS011;4024;52.172;5.378;2023-11-19T02:55:06;32.77;;;9.13;;
7957;SDS011;4024;52.172;5.378;2023-11-19T02:57:35;37.57;;;8.37;;
7957;SDS011;4024;52.172;5.378;2023-11-19T03:00:01;26.93;;;7.57;;
7957;SDS011;4024;52.172;5.378;2023-11-19T03:02:29;27.97;;;7.60;;
7957;SDS011;4024;52.172;5.378;2023-11-19T03:04:59;38.30;;;8.43;;
7957;SDS011;4024;52.172;5.378;2023-11-19T03:07:25;30.10;;;8.97;;
7957;SDS011;4024;52.172;5.378;2023-11-19T03:09:50;35.20;;;8.70;;
7957;SDS011;4024;52.172;5.378;2023-11-19T03:12:16;33.93;;;8.73;;
7957;SDS011;4024;52.172;5.378;2023-11-19T03:14:41;32.40;;;8.00;;
7957;SDS011;4024;52.172;5.378;2023-11-19T03:17:07;40.90;;;8.23;;
7957;SDS011;4024;52.172;5.378;2023-11-19T03:19:34;31.53;;;9.20;;
7957;SDS011;4024;52.172;5.378;2023-11-19T03:22:01;43.80;;;9.57;;
7957;SDS011;4024;52.172;5.378;2023-11-19T03:24:27;33.67;;;8.27;;
7957;SDS011;4024;52.172;5.378;2023-11-19T03:26:52;39.47;;;9.77;;
7957;SDS011;4024;52.172;5.378;2023-11-19T03:29:18;37.87;;;9.27;;
7957;SDS011;4024;52.172;5.378;2023-11-19T03:31:44;41.30;;;10.03;;
7957;SDS011;4024;52.172;5.378;2023-11-19T03:34:10;30.47;;;7.33;;
7957;SDS011;4024;52.172;5.378;2023-11-19T03:36:35;48.90;;;9.43;;
7957;SDS011;4024;52.172;5.378;2023-11-19T03:39:01;38.97;;;10.60;;
7957;SDS011;4024;52.172;5.378;2023-11-19T03:41:28;44.37;;;9.50;;
7957;SDS011;4024;52.172;5.378;2023-11-19T03:43:53;34.77;;;9.07;;
7957;SDS011;4024;52.172;5.378;2023-11-19T03:46:19;34.70;;;8.80;;
7957;SDS011;4024;52.172;5.378;2023-11-19T03:48:48;33.73;;;9.40;;
7957;SDS011;4024;52.172;5.378;2023-11-19T03:51:14;45.50;;;9.17;;
7957;SDS011;4024;52.172;5.378;2023-11-19T03:53:42;42.17;;;9.03;;
7957;SDS011;4024;52.172;5.378;2023-11-19T03:56:08;38.73;;;9.17;;
7957;SDS011;4024;52.172;5.378;2023-11-19T03:58:37;38.37;;;8.83;;
7957;SDS011;4024;52.172;5.378;2023-11-19T04:01:04;37.97;;;8.93;;
7957;SDS011;4024;52.172;5.378;2023-11-19T04:03:30;35.50;;;8.80;;
7957;SDS011;4024;52.172;5.378;2023-11-19T04:05:56;36.37;;;9.07;;
7957;SDS011;4024;52.172;5.378;2023-11-19T04:08:22;43.53;;;9.87;;
7957;SDS011;4024;52.172;5.378;2023-11-19T04:10:48;35.23;;;9.50;;
7957;SDS011;4024;52.172;5.378;2023-11-19T04:13:14;37.93;;;9.50;;
7957;SDS011;4024;52.172;5.378;2023-11-19T04:15:39;40.43;;;9.50;;
7957;SDS011;4024;52.172;5.378;2023-11-19T04:18:05;36.50;;;9.33;;
7957;SDS011;4024;52.172;5.378;2023-11-19T04:20:30;34.70;;;8.87;;
7957;SDS011;4024;52.172;5.378;2023-11-19T04:22:57;44.03;;;9.77;;
7957;SDS011;4024;52.172;5.378;2023-11-19T04:25:22;40.30;;;9.13;;
7957;SDS011;4024;52.172;5.378;2023-11-19T04:27:51;41.50;;;8.37;;
7957;SDS011;4024;52.172;5.378;2023-11-19T04:30:16;42.10;;;9.37;;
7957;SDS011;4024;52.172;5.378;2023-11-19T04:32:43;34.27;;;8.93;;
7957;SDS011;4024;52.172;5.378;2023-11-19T04:35:09;35.23;;;8.87;;
7957;SDS011;4024;52.172;5.378;2023-11-19T04:37:35;52.40;;;10.67;;
7957;SDS011;4024;52.172;5.378;2023-11-19T04:40:01;31.77;;;8.13;;
7957;SDS011;4024;52.172;5.378;2023-11-19T04:42:27;38.03;;;10.07;;
7957;SDS011;4024;52.172;5.378;2023-11-19T04:44:54;44.60;;;10.00;;
7957;SDS011;4024;52.172;5.378;2023-11-19T04:47:20;32.03;;;9.90;;
7957;SDS011;4024;52.172;5.378;2023-11-19T04:49:46;43.73;;;9.33;;
7957;SDS011;4024;52.172;5.378;2023-11-19T04:52:11;44.43;;;10.27;;
7957;SDS011;4024;52.172;5.378;2023-11-19T04:54:43;38.27;;;10.57;;
7957;SDS011;4024;52.172;5.378;2023-11-19T04:57:09;32.30;;;8.53;;
7957;SDS011;4024;52.172;5.378;2023-11-19T04:59:36;49.30;;;10.30;;
7957;SDS011;4024;52.172;5.378;2023-11-19T05:02:02;37.73;;;9.43;;
7957;SDS011;4024;52.172;5.378;2023-11-19T05:04:29;40.57;;;9.47;;
7957;SDS011;4024;52.172;5.378;2023-11-19T05:06:54;41.93;;;9.27;;
7957;SDS011;4024;52.172;5.378;2023-11-19T05:09:20;46.33;;;10.10;;
7957;SDS011;4024;52.172;5.378;2023-11-19T05:11:46;40.27;;;9.63;;
7957;SDS011;4024;52.172;5.378;2023-11-19T05:14:11;41.53;;;9.83;;
7957;SDS011;4024;52.172;5.378;2023-11-19T05:16:40;40.83;;;9.20;;
7957;SDS011;4024;52.172;5.378;2023-11-19T05:19:07;37.63;;;10.20;;
7957;SDS011;4024;52.172;5.378;2023-11-19T05:21:33;41.03;;;8.33;;
7957;SDS011;4024;52.172;5.378;2023-11-19T05:24:01;43.33;;;9.07;;
7957;SDS011;4024;52.172;5.378;2023-11-19T05:26:29;40.30;;;9.43;;
7957;SDS011;4024;52.172;5.378;2023-11-19T05:28:55;39.90;;;9.97;;
7957;SDS011;4024;52.172;5.378;2023-11-19T05:31:21;33.57;;;9.17;;
7957;SDS011;4024;52.172;5.378;2023-11-19T05:33:46;37.37;;;9.40;;
7957;SDS011;4024;52.172;5.378;2023-11-19T05:36:12;39.90;;;9.20;;
7957;SDS011;4024;52.172;5.378;2023-11-19T05:38:38;34.03;;;9.27;;
7957;SDS011;4024;52.172;5.378;2023-11-19T05:41:04;34.63;;;9.40;;
7957;SDS011;4024;52.172;5.378;2023-11-19T05:43:30;42.10;;;10.60;;
7957;SDS011;4024;52.172;5.378;2023-11-19T05:45:56;35.20;;;9.30;;
7957;SDS011;4024;52.172;5.378;2023-11-19T05:48:22;34.23;;;8.87;;
7957;SDS011;4024;52.172;5.378;2023-11-19T05:50:48;41.23;;;8.90;;
7957;SDS011;4024;52.172;5.378;2023-11-19T05:53:15;39.53;;;8.67;;
7957;SDS011;4024;52.172;5.378;2023-11-19T05:55:41;40.13;;;8.67;;
7957;SDS011;4024;52.172;5.378;2023-11-19T05:58:28;36.13;;;8.07;;
7957;SDS011;4024;52.172;5.378;2023-11-19T06:00:55;35.57;;;8.57;;
7957;SDS011;4024;52.172;5.378;2023-11-19T06:03:21;35.60;;;9.07;;
7957;SDS011;4024;52.172;5.378;2023-11-19T06:05:47;40.80;;;9.40;;
7957;SDS011;4024;52.172;5.378;2023-11-19T06:08:14;48.63;;;9.50;;
7957;SDS011;4024;52.172;5.378;2023-11-19T06:10:42;33.60;;;8.77;;
7957;SDS011;4024;52.172;5.378;2023-11-19T06:13:11;36.23;;;9.70;;
7957;SDS011;4024;52.172;5.378;2023-11-19T06:15:37;36.73;;;9.67;;
7957;SDS011;4024;52.172;5.378;2023-11-19T06:18:03;36.07;;;9.03;;
7957;SDS011;4024;52.172;5.378;2023-11-19T06:20:32;41.10;;;10.17;;
7957;SDS011;4024;52.172;5.378;2023-11-19T06:22:59;39.43;;;9.60;;
7957;SDS011;4024;52.172;5.378;2023-11-19T06:25:25;41.30;;;9.73;;
7957;SDS011;4024;52.172;5.378;2023-11-19T06:27:51;35.97;;;8.80;;
7957;SDS011;4024;52.172;5.378;2023-11-19T06:30:18;37.70;;;7.87;;
7957;SDS011;4024;52.172;5.378;2023-11-19T06:32:44;36.33;;;9.17;;
7957;SDS011;4024;52.172;5.378;2023-11-19T06:35:10;46.10;;;9.90;;
7957;SDS011;4024;52.172;5.378;2023-11-19T06:37:40;37.83;;;8.50;;
7957;SDS011;4024;52.172;5.378;2023-11-19T06:40:06;36.63;;;7.13;;
7957;SDS011;4024;52.172;5.378;2023-11-19T06:42:34;42.87;;;9.93;;
7957;SDS011;4024;52.172;5.378;2023-11-19T06:45:00;37.17;;;8.50;;
7957;SDS011;4024;52.172;5.378;2023-11-19T06:47:26;43.53;;;9.50;;
7957;SDS011;4024;52.172;5.378;2023-11-19T06:49:52;38.27;;;8.00;;
7957;SDS011;4024;52.172;5.378;2023-11-19T06:52:18;36.73;;;9.23;;
7957;SDS011;4024;52.172;5.378;2023-11-19T06:54:44;40.30;;;9.23;;
7957;SDS011;4024;52.172;5.378;2023-11-19T06:57:12;37.30;;;9.17;;
7957;SDS011;4024;52.172;5.378;2023-11-19T06:59:38;36.40;;;9.27;;
7957;SDS011;4024;52.172;5.378;2023-11-19T07:02:04;39.80;;;9.60;;
7957;SDS011;4024;52.172;5.378;2023-11-19T07:04:30;35.07;;;9.40;;
7957;SDS011;4024;52.172;5.378;2023-11-19T07:06:56;42.37;;;9.60;;
7957;SDS011;4024;52.172;5.378;2023-11-19T07:09:22;35.30;;;9.00;;
7957;SDS011;4024;52.172;5.378;2023-11-19T07:11:48;40.53;;;8.77;;
7957;SDS011;4024;52.172;5.378;2023-11-19T07:14:15;31.73;;;8.80;;
7957;SDS011;4024;52.172;5.378;2023-11-19T07:16:41;42.93;;;8.67;;
7957;SDS011;4024;52.172;5.378;2023-11-19T07:19:07;36.93;;;8.20;;
7957;SDS011;4024;52.172;5.378;2023-11-19T07:21:34;40.20;;;8.07;;
7957;SDS011;4024;52.172;5.378;2023-11-19T07:24:00;38.13;;;8.63;;
7957;SDS011;4024;52.172;5.378;2023-11-19T07:26:25;37.83;;;7.93;;
7957;SDS011;4024;52.172;5.378;2023-11-19T07:28:53;37.67;;;8.00;;
7957;SDS011;4024;52.172;5.378;2023-11-19T07:31:18;34.83;;;7.97;;
7957;SDS011;4024;52.172;5.378;2023-11-19T07:33:47;38.63;;;8.33;;
7957;SDS011;4024;52.172;5.378;2023-11-19T07:36:13;30.80;;;8.17;;
7957;SDS011;4024;52.172;5.378;2023-11-19T07:38:39;36.03;;;9.10;;
7957;SDS011;4024;52.172;5.378;2023-11-19T07:41:05;38.73;;;8.43;;
7957;SDS011;4024;52.172;5.378;2023-11-19T07:43:31;33.90;;;8.60;;
7957;SDS011;4024;52.172;5.378;2023-11-19T07:45:57;29.93;;;7.97;;
7957;SDS011;4024;52.172;5.378;2023-11-19T07:48:26;31.67;;;8.30;;
7957;SDS011;4024;52.172;5.378;2023-11-19T07:50:52;36.47;;;9.27;;
7957;SDS011;4024;52.172;5.378;2023-11-19T07:53:18;42.43;;;8.53;;
7957;SDS011;4024;52.172;5.378;2023-11-19T07:55:45;32.83;;;8.47;;
7957;SDS011;4024;52.172;5.378;2023-11-19T07:58:10;26.53;;;7.37;;
7957;SDS011;4024;52.172;5.378;2023-11-19T08:00:37;35.77;;;8.37;;
7957;SDS011;4024;52.172;5.378;2023-11-19T08:03:03;35.17;;;8.53;;
7957;SDS011;4024;52.172;5.378;2023-11-19T08:05:30;40.70;;;8.60;;
7957;SDS011;4024;52.172;5.378;2023-11-19T08:07:56;34.17;;;8.47;;
7957;SDS011;4024;52.172;5.378;2023-11-19T08:10:21;39.77;;;8.60;;
7957;SDS011;4024;52.172;5.378;2023-11-19T08:12:47;30.23;;;8.13;;
7957;SDS011;4024;52.172;5.378;2023-11-19T08:15:13;36.60;;;9.30;;
7957;SDS011;4024;52.172;5.378;2023-11-19T08:17:40;39.00;;;8.47;;
7957;SDS011;4024;52.172;5.378;2023-11-19T08:20:06;42.23;;;8.80;;
7957;SDS011;4024;52.172;5.378;2023-11-19T08:22:35;31.93;;;8.10;;
7957;SDS011;4024;52.172;5.378;2023-11-19T08:25:03;38.73;;;9.53;;
7957;SDS011;4024;52.172;5.378;2023-11-19T08:27:32;41.03;;;8.53;;
7957;SDS011;4024;52.172;5.378;2023-11-19T08:29:57;38.53;;;8.80;;
7957;SDS011;4024;52.172;5.378;2023-11-19T08:32:24;44.37;;;9.20;;
7957;SDS011;4024;52.172;5.378;2023-11-19T08:34:51;39.60;;;8.87;;
7957;SDS011;4024;52.172;5.378;2023-11-19T08:37:17;41.60;;;9.70;;
7957;SDS011;4024;52.172;5.378;2023-11-19T08:39:46;42.73;;;9.60;;
7957;SDS011;4024;52.172;5.378;2023-11-19T08:42:12;35.10;;;8.80;;
7957;SDS011;4024;52.172;5.378;2023-11-19T08:44:37;45.97;;;10.20;;
7957;SDS011;4024;52.172;5.378;2023-11-19T08:47:03;37.37;;;9.20;;
7957;SDS011;4024;52.172;5.378;2023-11-19T08:49:29;37.77;;;8.43;;
7957;SDS011;4024;52.172;5.378;2023-11-19T08:51:55;32.43;;;8.83;;
7957;SDS011;4024;52.172;5.378;2023-11-19T08:54:20;29.53;;;7.47;;
7957;SDS011;4024;52.172;5.378;2023-11-19T08:56:48;37.97;;;8.93;;
7957;SDS011;4024;52.172;5.378;2023-11-19T08:59:14;35.30;;;8.43;;
7957;SDS011;4024;52.172;5.378;2023-11-19T09:01:40;38.43;;;8.70;;
7957;SDS011;4024;52.172;5.378;2023-11-19T09:04:06;36.97;;;9.17;;
7957;SDS011;4024;52.172;5.378;2023-11-19T09:06:31;34.03;;;9.13;;
7957;SDS011;4024;52.172;5.378;2023-11-19T09:08:57;39.73;;;8.87;;
7957;SDS011;4024;52.172;5.378;2023-11-19T09:11:27;37.73;;;10.00;;
7957;SDS011;4024;52.172;5.378;2023-11-19T09:13:52;38.50;;;8.90;;
7957;SDS011;4024;52.172;5.378;2023-11-19T09:16:18;37.80;;;9.47;;
7957;SDS011;4024;52.172;5.378;2023-11-19T09:18:44;31.97;;;7.30;;
7957;SDS011;4024;52.172;5.378;2023-11-19T09:21:12;32.13;;;8.80;;
7957;SDS011;4024;52.172;5.378;2023-11-19T09:23:38;32.63;;;7.80;;
7957;SDS011;4024;52.172;5.378;2023-11-19T09:26:05;42.30;;;9.20;;
7957;SDS011;4024;52.172;5.378;2023-11-19T09:28:31;27.67;;;9.10;;
7957;SDS011;4024;52.172;5.378;2023-11-19T09:30:57;39.77;;;9.50;;
7957;SDS011;4024;52.172;5.378;2023-11-19T09:33:23;47.43;;;9.50;;
7957;SDS011;4024;52.172;5.378;2023-11-19T09:35:49;42.77;;;10.10;;
7957;SDS011;4024;52.172;5.378;2023-11-19T09:38:15;33.90;;;8.20;;
7957;SDS011;4024;52.172;5.378;2023-11-19T09:40:42;33.23;;;8.83;;
7957;SDS011;4024;52.172;5.378;2023-11-19T09:43:07;30.17;;;8.33;;
7957;SDS011;4024;52.172;5.378;2023-11-19T09:45:38;35.23;;;8.90;;
7957;SDS011;4024;52.172;5.378;2023-11-19T09:48:18;36.20;;;8.97;;
7957;SDS011;4024;52.172;5.378;2023-11-19T09:50:46;37.07;;;8.93;;
7957;SDS011;4024;52.172;5.378;2023-11-19T09:53:13;30.30;;;7.97;;
7957;SDS011;4024;52.172;5.378;2023-11-19T09:55:39;35.27;;;8.20;;
7957;SDS011;4024;52.172;5.378;2023-11-19T09:58:05;41.27;;;9.13;;
7957;SDS011;4024;52.172;5.378;2023-11-19T10:00:32;26.70;;;8.83;;
7957;SDS011;4024;52.172;5.378;2023-11-19T10:02:58;41.60;;;9.20;;
7957;SDS011;4024;52.172;5.378;2023-11-19T10:05:25;34.63;;;8.30;;
7957;SDS011;4024;52.172;5.378;2023-11-19T10:07:51;37.47;;;8.63;;
7957;SDS011;4024;52.172;5.378;2023-11-19T10:10:20;38.40;;;8.87;;
7957;SDS011;4024;52.172;5.378;2023-11-19T10:12:46;27.50;;;7.93;;
7957;SDS011;4024;52.172;5.378;2023-11-19T10:15:17;28.33;;;7.87;;
7957;SDS011;4024;52.172;5.378;2023-11-19T10:17:46;37.87;;;9.07;;
7957;SDS011;4024;52.172;5.378;2023-11-19T10:20:12;36.63;;;7.93;;
7957;SDS011;4024;52.172;5.378;2023-11-19T10:22:37;39.00;;;8.03;;
7957;SDS011;4024;52.172;5.378;2023-11-19T10:25:03;29.87;;;7.40;;
7957;SDS011;4024;52.172;5.378;2023-11-19T10:27:29;34.20;;;7.90;;
7957;SDS011;4024;52.172;5.378;2023-11-19T10:29:58;33.13;;;8.67;;
7957;SDS011;4024;52.172;5.378;2023-11-19T10:32:24;28.90;;;7.30;;
7957;SDS011;4024;52.172;5.378;2023-11-19T10:34:50;26.17;;;8.27;;
7957;SDS011;4024;52.172;5.378;2023-11-19T10:37:27;33.97;;;8.50;;
7957;SDS011;4024;52.172;5.378;2023-11-19T10:39:54;32.67;;;8.57;;
7957;SDS011;4024;52.172;5.378;2023-11-19T10:42:20;31.30;;;7.77;;
7957;SDS011;4024;52.172;5.378;2023-11-19T10:44:46;36.10;;;8.70;;
7957;SDS011;4024;52.172;5.378;2023-11-19T10:47:13;25.83;;;7.77;;
7957;SDS011;4024;52.172;5.378;2023-11-19T10:49:40;29.87;;;7.37;;
7957;SDS011;4024;52.172;5.378;2023-11-19T10:52:07;32.57;;;8.43;;
7957;SDS011;4024;52.172;5.378;2023-11-19T10:54:34;32.20;;;7.83;;
7957;SDS011;4024;52.172;5.378;2023-11-19T10:57:00;46.87;;;18.77;;
7957;SDS011;4024;52.172;5.378;2023-11-19T10:59:30;26.20;;;7.90;;
7957;SDS011;4024;52.172;5.378;2023-11-19T11:04:32;32.20;;;7.67;;
7957;SDS011;4024;52.172;5.378;2023-11-19T11:06:59;27.17;;;7.23;;
7957;SDS011;4024;52.172;5.378;2023-11-19T11:09:27;37.63;;;8.23;;
7957;SDS011;4024;52.172;5.378;2023-11-19T11:11:53;33.40;;;8.23;;
7957;SDS011;4024;52.172;5.378;2023-11-19T11:14:20;33.67;;;7.73;;
7957;SDS011;4024;52.172;5.378;2023-11-19T11:16:47;28.30;;;7.50;;
7957;SDS011;4024;52.172;5.378;2023-11-19T11:19:15;22.93;;;6.77;;
7957;SDS011;4024;52.172;5.378;2023-11-19T11:21:43;31.80;;;7.83;;
7957;SDS011;4024;52.172;5.378;2023-11-19T11:27:20;32.87;;;7.63;;
7957;SDS011;4024;52.172;5.378;2023-11-19T11:35:59;27.40;;;7.13;;
7957;SDS011;4024;52.172;5.378;2023-11-19T11:38:50;31.73;;;8.10;;
7957;SDS011;4024;52.172;5.378;2023-11-19T11:41:22;32.20;;;7.23;;
7957;SDS011;4024;52.172;5.378;2023-11-19T11:43:50;27.40;;;6.97;;
7957;SDS011;4024;52.172;5.378;2023-11-19T11:49:02;25.63;;;7.50;;
7957;SDS011;4024;52.172;5.378;2023-11-19T11:59:45;31.10;;;7.80;;
7957;SDS011;4024;52.172;5.378;2023-11-19T12:02:12;32.23;;;7.93;;
7957;SDS011;4024;52.172;5.378;2023-11-19T12:04:40;30.53;;;7.53;;
7957;SDS011;4024;52.172;5.378;2023-11-19T12:07:06;32.13;;;8.67;;
7957;SDS011;4024;52.172;5.378;2023-11-19T12:09:46;27.40;;;7.70;;
7957;SDS011;4024;52.172;5.378;2023-11-19T12:20:05;23.87;;;7.70;;
7957;SDS011;4024;52.172;5.378;2023-11-19T12:22:39;31.67;;;8.27;;
7957;SDS011;4024;52.172;5.378;2023-11-19T12:25:07;23.97;;;7.83;;
7957;SDS011;4024;52.172;5.378;2023-11-19T12:27:34;29.93;;;8.00;;
7957;SDS011;4024;52.172;5.378;2023-11-19T12:30:10;25.57;;;7.00;;
7957;SDS011;4024;52.172;5.378;2023-11-19T12:32:43;29.97;;;7.27;;
7957;SDS011;4024;52.172;5.378;2023-11-19T12:35:10;27.47;;;7.40;;
7957;SDS011;4024;52.172;5.378;2023-11-19T12:37:43;29.00;;;7.10;;
7957;SDS011;4024;52.172;5.378;2023-11-19T12:40:32;29.23;;;6.90;;
7957;SDS011;4024;52.172;5.378;2023-11-19T12:42:56;26.80;;;7.57;;
7957;SDS011;4024;52.172;5.378;2023-11-19T12:45:22;26.57;;;6.73;;
7957;SDS011;4024;52.172;5.378;2023-11-19T12:48:06;26.93;;;6.90;;
7957;SDS011;4024;52.172;5.378;2023-11-19T12:53:23;25.40;;;7.10;;
7957;SDS011;4024;52.172;5.378;2023-11-19T12:55:50;22.43;;;6.97;;
7957;SDS011;4024;52.172;5.378;2023-11-19T13:03:30;31.07;;;7.00;;
7957;SDS011;4024;52.172;5.378;2023-11-19T13:06:03;20.47;;;6.27;;
7957;SDS011;4024;52.172;5.378;2023-11-19T13:08:39;23.83;;;6.73;;
7957;SDS011;4024;52.172;5.378;2023-11-19T13:11:05;27.47;;;7.00;;
7957;SDS011;4024;52.172;5.378;2023-11-19T13:16:29;26.13;;;6.57;;
7957;SDS011;4024;52.172;5.378;2023-11-19T13:18:55;27.40;;;7.00;;
7957;SDS011;4024;52.172;5.378;2023-11-19T13:21:23;25.43;;;5.77;;
7957;SDS011;4024;52.172;5.378;2023-11-19T13:23:48;23.37;;;6.87;;
7957;SDS011;4024;52.172;5.378;2023-11-19T13:26:15;23.53;;;7.73;;
7957;SDS011;4024;52.172;5.378;2023-11-19T13:28:40;19.93;;;6.03;;
7957;SDS011;4024;52.172;5.378;2023-11-19T13:31:07;23.90;;;6.90;;
7957;SDS011;4024;52.172;5.378;2023-11-19T13:33:33;25.00;;;6.47;;
7957;SDS011;4024;52.172;5.378;2023-11-19T13:35:59;25.47;;;6.30;;
7957;SDS011;4024;52.172;5.378;2023-11-19T13:38:30;23.30;;;6.60;;
7957;SDS011;4024;52.172;5.378;2023-11-19T13:41:00;26.90;;;6.67;;
7957;SDS011;4024;52.172;5.378;2023-11-19T13:43:26;23.77;;;6.17;;
7957;SDS011;4024;52.172;5.378;2023-11-19T13:45:55;30.10;;;7.67;;
7957;SDS011;4024;52.172;5.378;2023-11-19T13:48:21;24.93;;;7.17;;
7957;SDS011;4024;52.172;5.378;2023-11-19T13:50:47;24.83;;;6.83;;
7957;SDS011;4024;52.172;5.378;2023-11-19T13:53:12;32.57;;;7.07;;
7957;SDS011;4024;52.172;5.378;2023-11-19T13:55:38;22.10;;;6.23;;
7957;SDS011;4024;52.172;5.378;2023-11-19T13:58:03;32.90;;;7.43;;
7957;SDS011;4024;52.172;5.378;2023-11-19T14:00:29;26.67;;;6.77;;
7957;SDS011;4024;52.172;5.378;2023-11-19T14:02:54;30.40;;;7.43;;
7957;SDS011;4024;52.172;5.378;2023-11-19T14:05:20;29.67;;;8.80;;
7957;SDS011;4024;52.172;5.378;2023-11-19T14:07:46;27.07;;;7.17;;
7957;SDS011;4024;52.172;5.378;2023-11-19T14:10:16;26.00;;;7.63;;
7957;SDS011;4024;52.172;5.378;2023-11-19T14:12:42;28.93;;;7.17;;
7957;SDS011;4024;52.172;5.378;2023-11-19T14:15:08;35.07;;;7.60;;
7957;SDS011;4024;52.172;5.378;2023-11-19T14:17:38;20.63;;;6.40;;
7957;SDS011;4024;52.172;5.378;2023-11-19T14:20:05;30.23;;;7.40;;
7957;SDS011;4024;52.172;5.378;2023-11-19T14:22:41;29.37;;;7.37;;
7957;SDS011;4024;52.172;5.378;2023-11-19T14:25:08;27.00;;;6.67;;
7957;SDS011;4024;52.172;5.378;2023-11-19T14:27:37;24.13;;;6.40;;
7957;SDS011;4024;52.172;5.378;2023-11-19T14:30:07;19.80;;;6.17;;
7957;SDS011;4024;52.172;5.378;2023-11-19T14:32:37;25.10;;;6.93;;
7957;SDS011;4024;52.172;5.378;2023-11-19T14:35:03;22.30;;;6.43;;
7957;SDS011;4024;52.172;5.378;2023-11-19T14:37:30;25.30;;;7.43;;
7957;SDS011;4024;52.172;5.378;2023-11-19T14:39:58;29.17;;;7.53;;
7957;SDS011;4024;52.172;5.378;2023-11-19T14:42:25;25.27;;;6.63;;
7957;SDS011;4024;52.172;5.378;2023-11-19T14:44:51;23.23;;;7.57;;
7957;SDS011;4024;52.172;5.378;2023-11-19T14:47:18;25.73;;;6.77;;
7957;SDS011;4024;52.172;5.378;2023-11-19T14:49:44;27.47;;;6.53;;
7957;SDS011;4024;52.172;5.378;2023-11-19T14:52:09;33.17;;;6.67;;
7957;SDS011;4024;52.172;5.378;2023-11-19T14:54:36;18.87;;;5.97;;
7957;SDS011;4024;52.172;5.378;2023-11-19T14:57:02;25.87;;;6.33;;
7957;SDS011;4024;52.172;5.378;2023-11-19T14:59:28;30.13;;;7.03;;
7957;SDS011;4024;52.172;5.378;2023-11-19T15:01:54;24.20;;;7.27;;
7957;SDS011;4024;52.172;5.378;2023-11-19T15:04:19;22.73;;;7.23;;
7957;SDS011;4024;52.172;5.378;2023-11-19T15:06:45;28.37;;;7.40;;
7957;SDS011;4024;52.172;5.378;2023-11-19T15:09:11;28.10;;;6.57;;
7957;SDS011;4024;52.172;5.378;2023-11-19T15:11:42;27.30;;;8.30;;
7957;SDS011;4024;52.172;5.378;2023-11-19T15:14:08;22.50;;;7.63;;
7957;SDS011;4024;52.172;5.378;2023-11-19T15:16:34;31.43;;;7.73;;
7957;SDS011;4024;52.172;5.378;2023-11-19T15:19:00;29.00;;;7.77;;
7957;SDS011;4024;52.172;5.378;2023-11-19T15:21:28;26.17;;;7.40;;
7957;SDS011;4024;52.172;5.378;2023-11-19T15:23:54;29.80;;;7.57;;
7957;SDS011;4024;52.172;5.378;2023-11-19T15:26:21;25.00;;;6.53;;
7957;SDS011;4024;52.172;5.378;2023-11-19T15:28:47;29.97;;;7.40;;
7957;SDS011;4024;52.172;5.378;2023-11-19T15:31:12;31.43;;;8.13;;
7957;SDS011;4024;52.172;5.378;2023-11-19T15:33:39;23.00;;;6.73;;
7957;SDS011;4024;52.172;5.378;2023-11-19T15:36:05;26.30;;;7.43;;
7957;SDS011;4024;52.172;5.378;2023-11-19T15:38:33;25.03;;;6.90;;
7957;SDS011;4024;52.172;5.378;2023-11-19T15:40:59;19.23;;;6.00;;